Sanliurfa, Turkey
Current Conditions -  °F | °C
As of 2:50 AM on Sunday 26 Oct 2014 (Local Time) from LTCS Reporting Station
Clear Clear  
Wind Chill: 61°   Ceiling: Unl
Heat Index: 61°   Visibility: 6mi
Dew Point: 48°   Wind: 3mph
Humidity: 63%   Direction: 270°W
Pressure: 30.06"   Gusts: NA
Location:  37.15°N, 38.8°E
Report Text: LTCS 260050Z 27003KT CAVOK 16/09 Q1018
Loading
Personal Weather Stations






























Interactive Weather Map
Tropical Storm Tracking
New forecast layout! Learn more

10-Day Weather Forecast

Advertisements
Track Severe Weather on mobile